createdAt,value
2022-12-23T00:02:41.303Z,92.45
2022-12-23T00:05:43.452Z,95.80
2022-12-23T00:08:46.773Z,83.70
2022-12-23T00:12:12.259Z,84.53
2022-12-23T00:15:14.882Z,85.15
2022-12-23T00:18:19.876Z,83.07
2022-12-23T00:21:22.944Z,89.63
2022-12-23T00:24:25.129Z,81.25
2022-12-23T00:27:27.108Z,74.80
2022-12-23T00:30:29.079Z,80.43
2022-12-23T00:33:40.251Z,70.97
2022-12-23T00:36:42.365Z,78.93
2022-12-23T00:40:06.753Z,77.82
2022-12-23T00:43:08.991Z,82.20
2022-12-23T00:46:10.997Z,81.75
2022-12-23T00:49:36.414Z,77.57
2022-12-23T00:52:38.656Z,79.80
2022-12-23T00:55:40.600Z,77.07
2022-12-23T00:58:42.603Z,74.90
2022-12-23T01:02:03.324Z,81.53
2022-12-23T01:05:24.325Z,76.00
2022-12-23T01:08:27.215Z,74.95
2022-12-23T01:11:29.367Z,71.70
2022-12-23T01:14:32.289Z,78.50
2022-12-23T01:17:34.397Z,82.22
2022-12-23T01:20:39.665Z,81.00
2022-12-23T01:23:41.641Z,79.75
2022-12-23T01:26:43.772Z,75.10
2022-12-23T01:29:46.528Z,73.77
2022-12-23T01:32:50.901Z,71.47
2022-12-23T01:35:59.170Z,74.85
2022-12-23T01:39:01.187Z,81.15
2022-12-23T01:42:21.902Z,90.70
2022-12-23T01:45:33.797Z,92.77
2022-12-23T01:48:36.407Z,85.45
2022-12-23T01:51:38.590Z,76.30
2022-12-23T01:54:43.091Z,96.68
2022-12-23T01:57:46.477Z,92.68
2022-12-23T02:01:07.823Z,90.60
2022-12-23T02:04:14.091Z,98.63
2022-12-23T02:07:36.449Z,105.85
2022-12-23T02:11:27.695Z,96.75
2022-12-23T02:15:07.208Z,112.28
2022-12-23T02:18:21.853Z,100.93
2022-12-23T02:21:40.026Z,99.18
2022-12-23T02:25:01.531Z,107.25
2022-12-23T02:28:36.474Z,101.80
2022-12-23T02:31:44.061Z,92.40
2022-12-23T02:35:01.675Z,99.17
2022-12-23T02:38:11.156Z,105.95
2022-12-23T02:41:19.167Z,108.82
2022-12-23T02:44:39.942Z,107.30
2022-12-23T02:47:49.863Z,109.65
2022-12-23T02:50:55.221Z,98.47
2022-12-23T02:54:01.325Z,106.43
2022-12-23T02:57:06.542Z,112.95
2022-12-23T03:00:09.983Z,116.63
2022-12-23T03:03:12.995Z,110.45
2022-12-23T03:06:23.351Z,106.90
2022-12-23T03:09:59.877Z,114.35
2022-12-23T03:13:40.610Z,101.32
2022-12-23T03:16:42.569Z,117.97
2022-12-23T03:20:22.063Z,132.07
2022-12-23T03:23:29.872Z,121.03
2022-12-23T03:26:45.538Z,116.43
2022-12-23T03:29:58.022Z,115.75
2022-12-23T03:33:06.399Z,130.10
2022-12-23T03:36:18.684Z,127.88
2022-12-23T03:39:26.464Z,132.60
2022-12-23T03:42:35.280Z,125.80
2022-12-23T03:45:47.549Z,132.52
2022-12-23T03:48:54.209Z,133.90
2022-12-23T03:52:21.176Z,147.02
2022-12-23T03:55:45.564Z,134.33
2022-12-23T03:58:53.674Z,145.50
2022-12-23T04:02:28.085Z,119.82
2022-12-23T04:05:35.620Z,133.70
2022-12-23T04:08:38.829Z,137.80
2022-12-23T04:11:41.268Z,132.83
2022-12-23T04:14:50.266Z,131.68
2022-12-23T04:17:53.763Z,139.05
2022-12-23T04:20:59.642Z,130.95
2022-12-23T04:24:01.732Z,135.32
2022-12-23T04:27:03.633Z,135.30
2022-12-23T04:30:06.920Z,147.15
2022-12-23T04:33:11.527Z,159.70
2022-12-23T04:36:13.625Z,122.65
2022-12-23T04:39:15.819Z,148.80
2022-12-23T04:42:17.998Z,122.13
2022-12-23T04:45:19.938Z,141.48
2022-12-23T04:48:22.054Z,138.80
2022-12-23T04:51:24.109Z,137.82
2022-12-23T04:54:26.224Z,109.18
2022-12-23T04:57:28.159Z,137.80
2022-12-23T05:00:39.107Z,131.52
2022-12-23T05:03:42.847Z,135.38
2022-12-23T05:06:45.085Z,123.57
2022-12-23T05:09:47.430Z,134.05
2022-12-23T05:12:49.319Z,127.57
2022-12-23T05:15:53.324Z,117.72
2022-12-23T05:18:55.438Z,135.02
2022-12-23T05:21:57.331Z,128.77
2022-12-23T05:24:59.430Z,101.63
2022-12-23T05:28:01.672Z,129.57
2022-12-23T05:31:09.123Z,145.35
2022-12-23T05:34:11.211Z,123.57
2022-12-23T05:37:13.410Z,125.80
2022-12-23T05:40:24.067Z,119.97
2022-12-23T05:43:30.632Z,105.73
2022-12-23T05:46:32.744Z,114.88
2022-12-23T05:49:35.175Z,106.28
2022-12-23T05:52:37.772Z,99.57
2022-12-23T05:55:39.890Z,100.80
2022-12-23T05:58:41.944Z,90.23
2022-12-23T06:01:44.063Z,92.53
2022-12-23T06:04:46.099Z,81.57
2022-12-23T06:07:48.129Z,76.50
2022-12-23T06:10:54.234Z,102.10
2022-12-23T06:13:56.292Z,90.57
2022-12-23T06:16:58.687Z,85.10
2022-12-23T06:20:01.170Z,77.43
2022-12-23T06:23:03.222Z,78.05
2022-12-23T06:26:05.375Z,72.30
2022-12-23T06:29:07.453Z,79.50
2022-12-23T06:32:10.457Z,82.32
2022-12-23T06:35:13.464Z,78.90
2022-12-23T06:38:15.868Z,81.68
2022-12-23T06:41:19.012Z,82.85
2022-12-23T06:44:21.370Z,73.43
2022-12-23T06:47:23.516Z,73.35
2022-12-23T06:50:25.960Z,60.95
2022-12-23T06:53:28.611Z,56.35
2022-12-23T06:56:30.594Z,58.92
2022-12-23T06:59:32.745Z,68.73
2022-12-23T07:02:35.354Z,64.28
2022-12-23T07:05:37.902Z,59.38
2022-12-23T07:08:40.487Z,54.88
2022-12-23T07:11:42.395Z,58.25
2022-12-23T07:14:44.524Z,56.07
2022-12-23T07:17:46.568Z,59.20
2022-12-23T07:20:49.574Z,73.60
2022-12-23T07:23:52.009Z,69.57
2022-12-23T07:26:56.135Z,60.67
2022-12-23T07:29:58.259Z,67.77
2022-12-23T07:33:00.345Z,68.38
2022-12-23T07:36:03.342Z,60.55
2022-12-23T07:39:05.533Z,63.63
2022-12-23T07:45:30.544Z,62.17
2022-12-23T07:48:32.557Z,67.82
2022-12-23T07:51:34.613Z,61.83
2022-12-23T07:54:37.209Z,57.70
2022-12-23T07:57:40.078Z,59.58
2022-12-23T08:00:45.264Z,59.27
2022-12-23T08:03:47.684Z,53.45
2022-12-23T08:06:49.835Z,63.85
2022-12-23T08:09:52.248Z,66.03
2022-12-23T08:12:54.707Z,64.55
2022-12-23T08:15:58.822Z,58.97
2022-12-23T08:19:01.096Z,70.07
2022-12-23T08:22:07.863Z,64.30
2022-12-23T08:25:10.286Z,58.42
2022-12-23T08:28:12.247Z,68.85
2022-12-23T08:31:29.121Z,62.70
2022-12-23T08:34:31.410Z,60.45
2022-12-23T08:37:33.572Z,66.55
2022-12-23T08:40:40.938Z,57.20
2022-12-23T08:43:43.664Z,55.35
2022-12-23T08:46:45.798Z,57.93
2022-12-23T08:49:48.599Z,55.60
2022-12-23T08:52:50.646Z,59.55
2022-12-23T08:55:52.646Z,69.30
2022-12-23T08:58:55.777Z,63.88
2022-12-23T09:01:59.893Z,54.87
2022-12-23T09:05:02.033Z,57.45
2022-12-23T09:08:04.085Z,72.32
2022-12-23T09:11:11.952Z,73.30
2022-12-23T09:14:14.001Z,67.15
2022-12-23T09:17:17.934Z,53.23
2022-12-23T09:20:21.155Z,61.40
2022-12-23T09:23:23.326Z,67.63
2022-12-23T09:26:30.342Z,68.15
2022-12-23T09:29:32.658Z,65.10
2022-12-23T09:32:35.110Z,53.80
2022-12-23T09:35:37.767Z,55.67
2022-12-23T09:38:41.370Z,64.18
2022-12-23T09:42:05.210Z,52.20
2022-12-23T09:45:13.509Z,56.20
2022-12-23T09:48:20.051Z,48.03
2022-12-23T09:51:23.755Z,55.72
2022-12-23T09:54:33.218Z,56.00
2022-12-23T09:58:01.656Z,54.35
2022-12-23T10:01:14.882Z,51.63
2022-12-23T10:04:23.758Z,52.00
2022-12-23T10:07:35.966Z,55.40
2022-12-23T10:10:43.962Z,50.30
2022-12-23T10:13:50.515Z,58.65
2022-12-23T10:17:15.223Z,55.17
2022-12-23T10:20:28.636Z,66.13
2022-12-23T10:23:36.564Z,53.92
2022-12-23T10:26:48.965Z,49.17
2022-12-23T10:29:51.605Z,61.92
2022-12-23T10:33:21.000Z,59.53
2022-12-23T10:36:35.412Z,59.23
2022-12-23T10:39:46.374Z,56.58
2022-12-23T10:43:03.472Z,66.25
2022-12-23T10:46:16.068Z,63.08
2022-12-23T10:49:36.431Z,73.45
2022-12-23T10:52:43.125Z,61.13
2022-12-23T10:55:45.515Z,72.95
2022-12-23T10:58:53.085Z,69.45
2022-12-23T11:02:05.833Z,61.60
2022-12-23T11:05:15.682Z,64.93
2022-12-23T11:08:20.498Z,61.53
2022-12-23T11:11:22.498Z,62.72
2022-12-23T11:14:53.499Z,61.70
2022-12-23T11:18:11.562Z,67.22
2022-12-23T11:21:15.368Z,63.45
2022-12-23T11:24:20.320Z,63.73
2022-12-23T11:27:22.267Z,57.90
2022-12-23T11:30:25.305Z,61.30
2022-12-23T11:33:31.391Z,64.53
2022-12-23T11:36:35.037Z,59.10
2022-12-23T11:39:37.949Z,68.47
2022-12-23T11:42:41.491Z,66.50
2022-12-23T11:45:43.763Z,77.35
2022-12-23T11:48:51.333Z,64.60
2022-12-23T11:52:05.797Z,66.82
2022-12-23T11:55:24.304Z,64.07
2022-12-23T11:58:28.955Z,76.45
2022-12-23T12:01:31.765Z,68.13
2022-12-23T12:04:35.829Z,69.75
2022-12-23T12:07:43.238Z,72.22
2022-12-23T12:10:45.305Z,72.57
2022-12-23T12:13:59.156Z,70.68
2022-12-23T12:17:12.825Z,72.10
2022-12-23T12:20:29.060Z,65.28
2022-12-23T12:23:40.187Z,65.95
2022-12-23T12:26:47.157Z,71.83
2022-12-23T12:29:54.440Z,74.20
2022-12-23T12:32:59.878Z,85.72
2022-12-23T12:36:40.866Z,73.13
2022-12-23T12:39:50.012Z,73.68
2022-12-23T12:43:00.105Z,74.40
2022-12-23T12:46:31.419Z,73.32
2022-12-23T12:50:06.772Z,76.30
2022-12-23T12:53:17.431Z,79.40
2022-12-23T12:56:45.499Z,75.30
2022-12-23T12:59:50.882Z,77.07
2022-12-23T13:02:55.951Z,75.70
2022-12-23T13:06:17.195Z,81.35
2022-12-23T13:09:51.402Z,81.05
2022-12-23T13:13:15.458Z,87.55
2022-12-23T13:16:34.917Z,102.13
2022-12-23T13:19:56.758Z,80.32
2022-12-23T13:23:43.076Z,85.72
2022-12-23T13:27:25.510Z,79.05
2022-12-23T13:30:34.320Z,74.28
2022-12-23T13:34:02.366Z,71.80
2022-12-23T13:37:18.030Z,81.22
2022-12-23T13:40:29.763Z,77.38
2022-12-23T13:43:46.339Z,85.68
2022-12-23T13:47:06.932Z,75.05
2022-12-23T13:50:18.153Z,97.97
2022-12-23T13:53:27.022Z,72.55
2022-12-23T13:56:54.150Z,90.55
2022-12-23T14:00:05.387Z,87.72
2022-12-23T14:03:12.847Z,84.88
2022-12-23T14:06:36.808Z,102.13
2022-12-23T14:09:39.451Z,110.15
2022-12-23T14:12:43.197Z,101.20
2022-12-23T14:15:57.815Z,106.05
2022-12-23T14:18:59.981Z,96.97
2022-12-23T14:22:23.242Z,93.27
2022-12-23T14:25:56.128Z,86.47
2022-12-23T14:29:11.227Z,83.10
2022-12-23T14:32:46.378Z,86.35
2022-12-23T14:35:48.515Z,99.22
2022-12-23T14:39:30.761Z,83.30
2022-12-23T14:42:41.548Z,77.05
2022-12-23T14:45:44.226Z,80.57
2022-12-23T14:48:46.074Z,76.88
2022-12-23T14:51:51.391Z,72.65
2022-12-23T14:55:20.994Z,73.20
2022-12-23T14:58:18.825Z,69.35
2022-12-23T15:01:41.890Z,73.28
2022-12-23T15:04:53.259Z,71.20
2022-12-23T15:07:57.080Z,67.70
2022-12-23T15:11:00.245Z,71.13
2022-12-23T15:14:11.237Z,76.00
2022-12-23T15:17:31.409Z,75.20
2022-12-23T15:20:35.413Z,76.43
2022-12-23T15:23:37.674Z,78.03
2022-12-23T15:26:51.856Z,75.03
2022-12-23T15:30:02.624Z,75.93
2022-12-23T15:33:34.729Z,74.82
2022-12-23T15:36:35.768Z,80.53
2022-12-23T15:39:41.122Z,79.13
2022-12-23T15:42:48.647Z,80.90
2022-12-23T15:45:51.218Z,80.45
2022-12-23T15:48:53.407Z,82.30
2022-12-23T15:52:11.133Z,77.18
2022-12-23T15:55:26.165Z,79.38
2022-12-23T15:58:32.511Z,92.87
2022-12-23T16:01:41.081Z,85.20
2022-12-23T16:04:54.931Z,82.40
2022-12-23T16:08:14.119Z,74.03
2022-12-23T16:11:20.823Z,81.47
2022-12-23T16:14:32.476Z,77.93
2022-12-23T16:17:36.452Z,82.55
2022-12-23T16:20:56.670Z,75.30
2022-12-23T16:23:59.977Z,66.68
2022-12-23T16:27:01.905Z,85.35
2022-12-23T16:30:11.800Z,74.47
2022-12-23T16:33:40.055Z,98.00
2022-12-23T16:36:42.271Z,87.97
2022-12-23T16:39:44.352Z,98.55
2022-12-23T16:42:46.435Z,91.88
2022-12-23T16:45:53.267Z,79.97
2022-12-23T16:48:58.826Z,96.85
2022-12-23T16:52:01.160Z,93.80
2022-12-23T16:55:03.448Z,74.22
2022-12-23T16:58:05.902Z,74.70
2022-12-23T17:01:14.544Z,76.50
2022-12-23T17:04:16.828Z,75.22
2022-12-23T17:07:19.287Z,79.78
2022-12-23T17:10:27.747Z,79.32
2022-12-23T17:13:29.772Z,73.22
2022-12-23T17:16:32.528Z,81.80
2022-12-23T17:19:34.694Z,72.88
2022-12-23T17:22:38.054Z,81.00
2022-12-23T17:25:39.961Z,93.53
2022-12-23T17:28:41.958Z,85.00
2022-12-23T17:31:44.907Z,85.70
2022-12-23T17:34:47.192Z,94.32
2022-12-23T17:37:49.456Z,99.97
2022-12-23T17:40:52.097Z,92.90
2022-12-23T17:43:55.427Z,96.47
2022-12-23T17:46:58.086Z,89.70
2022-12-23T17:50:00.147Z,81.55
2022-12-23T17:53:02.177Z,79.05
2022-12-23T17:56:13.140Z,76.68
2022-12-23T17:59:15.566Z,74.97
2022-12-23T18:02:32.986Z,79.27
2022-12-23T18:05:35.875Z,77.32
2022-12-23T18:08:37.885Z,72.97
2022-12-23T18:11:44.212Z,79.00
2022-12-23T18:14:46.287Z,88.88
2022-12-23T18:17:48.535Z,92.47
2022-12-23T18:20:56.613Z,88.75
2022-12-23T18:23:59.850Z,83.30
2022-12-23T18:27:02.467Z,89.18
2022-12-23T18:30:05.175Z,83.78
2022-12-23T18:33:10.363Z,68.50
2022-12-23T18:36:30.726Z,88.75
2022-12-23T18:39:33.022Z,90.93
2022-12-23T18:42:34.971Z,85.03
2022-12-23T18:45:47.827Z,77.57
2022-12-23T18:48:57.345Z,85.50
2022-12-23T18:51:59.345Z,77.90
2022-12-23T18:55:01.450Z,88.35
2022-12-23T18:58:04.235Z,79.82
2022-12-23T19:01:06.814Z,87.68
2022-12-23T19:04:09.111Z,82.03
2022-12-23T19:07:11.550Z,78.22
2022-12-23T19:10:36.144Z,78.57
2022-12-23T19:13:38.429Z,78.28
2022-12-23T19:16:46.058Z,86.13
2022-12-23T19:19:51.437Z,62.70
2022-12-23T19:22:53.379Z,84.15
2022-12-23T19:25:55.786Z,72.82
2022-12-23T19:28:58.109Z,85.70
2022-12-23T19:32:00.508Z,85.35
2022-12-23T19:35:02.895Z,77.40
2022-12-23T19:38:06.456Z,73.93
2022-12-23T19:41:10.604Z,82.18
2022-12-23T19:44:12.752Z,79.85
2022-12-23T19:47:15.008Z,87.90
2022-12-23T19:50:20.133Z,76.27
2022-12-23T19:53:22.688Z,71.80
2022-12-23T19:56:25.197Z,87.13
2022-12-23T19:59:27.325Z,74.15
2022-12-23T20:02:30.281Z,80.72
2022-12-23T20:05:32.353Z,80.60
2022-12-23T20:08:34.928Z,80.95
2022-12-23T20:11:39.921Z,74.45
2022-12-23T20:14:41.911Z,75.63
2022-12-23T20:17:43.742Z,82.63
2022-12-23T20:20:46.975Z,77.73
2022-12-23T20:23:49.586Z,88.30
2022-12-23T20:26:52.297Z,91.20
2022-12-23T20:29:54.674Z,82.05
2022-12-23T20:32:57.497Z,71.63
2022-12-23T20:36:00.496Z,73.10
2022-12-23T20:39:03.999Z,78.60
2022-12-23T20:42:06.477Z,74.22
2022-12-23T20:45:09.227Z,70.75
2022-12-23T20:48:11.275Z,74.40
2022-12-23T20:51:20.096Z,77.17
2022-12-23T20:54:27.876Z,68.03
2022-12-23T20:57:36.212Z,72.93
2022-12-23T21:00:38.720Z,70.80
2022-12-23T21:03:41.459Z,75.80
2022-12-23T21:06:44.303Z,69.53
2022-12-23T21:09:46.407Z,92.45
2022-12-23T21:12:48.579Z,75.25
2022-12-23T21:15:51.255Z,72.43
2022-12-23T21:18:53.607Z,74.15
2022-12-23T21:21:57.166Z,70.67
2022-12-23T21:24:59.449Z,67.38
2022-12-23T21:28:01.783Z,69.70
2022-12-23T21:31:07.344Z,64.95
2022-12-23T21:34:11.020Z,63.00
2022-12-23T21:37:13.187Z,57.10
2022-12-23T21:40:15.926Z,50.78
2022-12-23T21:43:18.224Z,51.42
2022-12-23T21:46:22.108Z,49.03
2022-12-23T21:49:24.121Z,52.72
2022-12-23T21:52:26.204Z,52.37
2022-12-23T21:55:28.565Z,52.25
2022-12-23T21:58:30.793Z,50.85
2022-12-23T22:01:36.419Z,56.80
2022-12-23T22:04:39.397Z,50.53
2022-12-23T22:07:41.376Z,48.73
2022-12-23T22:10:51.240Z,53.67
2022-12-23T22:13:55.201Z,46.83
2022-12-23T22:16:57.420Z,45.58
2022-12-23T22:19:59.502Z,42.75
2022-12-23T22:23:02.273Z,44.33
2022-12-23T22:26:05.715Z,40.42
2022-12-23T22:29:08.199Z,42.13
2022-12-23T22:32:10.291Z,41.55
2022-12-23T22:35:12.532Z,41.90
2022-12-23T22:38:14.685Z,70.73
2022-12-23T22:41:16.889Z,62.05
2022-12-23T22:44:20.038Z,40.72
2022-12-23T22:47:22.021Z,41.17
2022-12-23T22:50:25.037Z,40.72
2022-12-23T22:53:29.847Z,48.30
2022-12-23T22:56:32.164Z,52.03
2022-12-23T22:59:34.267Z,42.85
2022-12-23T23:02:36.326Z,39.47
2022-12-23T23:05:38.948Z,41.67
2022-12-23T23:08:47.709Z,41.83
2022-12-23T23:11:51.737Z,46.10
2022-12-23T23:14:53.853Z,40.58
2022-12-23T23:18:00.848Z,36.55
2022-12-23T23:21:02.999Z,46.65
2022-12-23T23:24:05.771Z,60.97
2022-12-23T23:27:07.979Z,66.90
2022-12-23T23:30:12.224Z,56.72
2022-12-23T23:33:14.369Z,53.17
2022-12-23T23:36:16.379Z,53.33
2022-12-23T23:39:18.787Z,51.87
2022-12-23T23:42:21.667Z,48.42
2022-12-23T23:45:23.918Z,50.42
2022-12-23T23:48:25.864Z,53.17
2022-12-23T23:51:27.898Z,58.75
2022-12-23T23:54:29.868Z,58.50
2022-12-23T23:57:32.215Z,54.72
